createdAt,value
2022-10-16T00:00:35.956Z,3.33
2022-10-16T00:03:03.636Z,3.50
2022-10-16T00:05:30.480Z,2.97
2022-10-16T00:07:56.886Z,3.33
2022-10-16T00:10:23.857Z,2.63
2022-10-16T00:12:50.168Z,3.47
2022-10-16T00:15:16.593Z,2.53
2022-10-16T00:17:42.926Z,3.20
2022-10-16T00:20:09.375Z,3.03
2022-10-16T00:22:35.700Z,2.83
2022-10-16T00:25:02.026Z,2.27
2022-10-16T00:27:28.321Z,3.47
2022-10-16T00:29:54.777Z,3.00
2022-10-16T00:32:21.079Z,3.20
2022-10-16T00:34:47.368Z,3.53
2022-10-16T00:37:14.434Z,2.53
2022-10-16T00:39:40.694Z,2.30
2022-10-16T00:42:07.027Z,3.17
2022-10-16T00:44:53.481Z,3.13
2022-10-16T00:47:25.300Z,2.83
2022-10-16T00:49:53.909Z,2.80
2022-10-16T00:52:20.428Z,2.70
2022-10-16T00:54:48.022Z,2.80
2022-10-16T00:59:46.684Z,3.13
2022-10-16T01:02:15.729Z,3.30
2022-10-16T01:04:47.077Z,2.77
2022-10-16T01:07:31.049Z,2.70
2022-10-16T01:09:57.276Z,2.17
2022-10-16T01:12:38.811Z,2.50
2022-10-16T01:15:22.849Z,2.63
2022-10-16T01:17:58.597Z,2.60
2022-10-16T01:20:30.940Z,2.70
2022-10-16T01:23:26.438Z,2.10
2022-10-16T01:26:20.683Z,3.00
2022-10-16T01:29:03.967Z,1.87
2022-10-16T01:31:34.468Z,2.03
2022-10-16T01:34:10.577Z,2.27
2022-10-16T01:36:42.943Z,1.60
2022-10-16T01:39:11.773Z,2.17
2022-10-16T01:41:44.326Z,2.33
2022-10-16T01:44:33.277Z,1.97
2022-10-16T01:47:00.808Z,1.90
2022-10-16T01:49:32.553Z,1.80
2022-10-16T01:52:02.928Z,1.83
2022-10-16T01:54:32.501Z,2.53
2022-10-16T01:56:59.842Z,1.70
2022-10-16T01:59:27.719Z,2.10
2022-10-16T02:02:00.412Z,2.43
2022-10-16T02:04:39.001Z,2.10
2022-10-16T02:07:05.752Z,1.93
2022-10-16T02:09:34.007Z,1.97
2022-10-16T02:12:03.387Z,2.20
2022-10-16T02:14:30.381Z,1.97
2022-10-16T02:16:56.762Z,2.20
2022-10-16T02:19:23.223Z,2.77
2022-10-16T02:21:57.750Z,2.30
2022-10-16T02:24:29.144Z,2.17
2022-10-16T02:27:16.200Z,2.00
2022-10-16T02:29:49.000Z,1.90
2022-10-16T02:32:18.773Z,1.97
2022-10-16T02:34:46.526Z,1.90
2022-10-16T02:37:13.577Z,2.27
2022-10-16T02:39:41.547Z,2.33
2022-10-16T02:42:14.796Z,2.33
2022-10-16T02:44:41.277Z,2.20
2022-10-16T02:47:07.734Z,2.00
2022-10-16T02:49:34.008Z,2.53
2022-10-16T02:52:00.316Z,2.83
2022-10-16T02:54:26.568Z,2.23
2022-10-16T02:56:52.815Z,2.13
2022-10-16T02:59:19.141Z,2.33
2022-10-16T03:01:45.567Z,2.37
2022-10-16T03:04:11.906Z,2.30
2022-10-16T03:06:38.214Z,2.50
2022-10-16T03:09:04.521Z,2.13
2022-10-16T03:11:30.834Z,2.20
2022-10-16T03:13:57.080Z,2.00
2022-10-16T03:16:23.417Z,2.30
2022-10-16T03:18:50.662Z,2.00
2022-10-16T03:21:17.054Z,2.40
2022-10-16T03:23:43.504Z,2.20
2022-10-16T03:26:09.747Z,1.97
2022-10-16T03:28:36.090Z,1.60
2022-10-16T03:31:02.602Z,2.50
2022-10-16T03:33:28.922Z,1.80
2022-10-16T03:35:55.753Z,1.80
2022-10-16T03:38:22.550Z,2.60
2022-10-16T03:40:49.137Z,1.73
2022-10-16T03:45:46.708Z,1.70
2022-10-16T03:48:13.004Z,2.00
2022-10-16T03:50:39.461Z,2.23
2022-10-16T03:53:06.817Z,2.10
2022-10-16T03:55:33.122Z,2.00
2022-10-16T03:57:59.464Z,1.90
2022-10-16T04:00:25.972Z,1.67
2022-10-16T04:02:52.335Z,1.90
2022-10-16T04:05:18.637Z,2.03
2022-10-16T04:07:44.872Z,2.00
2022-10-16T04:10:11.248Z,1.73
2022-10-16T04:12:37.599Z,1.83
2022-10-16T04:15:04.093Z,2.07
2022-10-16T04:17:30.608Z,1.87
2022-10-16T04:19:56.844Z,1.73
2022-10-16T04:22:23.435Z,2.23
2022-10-16T04:24:49.703Z,1.80
2022-10-16T04:27:15.936Z,1.83
2022-10-16T04:29:42.249Z,1.80
2022-10-16T04:32:11.267Z,1.77
2022-10-16T04:34:39.074Z,1.90
2022-10-16T04:37:05.378Z,2.13
2022-10-16T04:39:31.769Z,2.20
2022-10-16T04:41:58.071Z,1.93
2022-10-16T04:44:24.303Z,1.80
2022-10-16T04:46:53.659Z,2.70
2022-10-16T04:49:20.008Z,1.67
2022-10-16T04:51:46.311Z,2.27
2022-10-16T04:54:12.826Z,1.90
2022-10-16T04:56:46.949Z,2.63
2022-10-16T04:59:13.808Z,1.60
2022-10-16T05:01:40.213Z,2.00
2022-10-16T05:04:06.454Z,2.40
2022-10-16T05:06:32.901Z,2.23
2022-10-16T05:08:59.225Z,2.20
2022-10-16T05:11:25.492Z,1.80
2022-10-16T05:13:55.094Z,1.70
2022-10-16T05:16:22.382Z,1.87
2022-10-16T05:18:52.993Z,2.30
2022-10-16T05:21:19.772Z,2.37
2022-10-16T05:23:46.062Z,2.00
2022-10-16T05:26:12.537Z,2.17
2022-10-16T05:28:38.855Z,2.57
2022-10-16T05:31:09.435Z,1.57
2022-10-16T05:33:35.863Z,1.93
2022-10-16T05:36:08.260Z,1.83
2022-10-16T05:38:35.360Z,2.03
2022-10-16T05:41:01.855Z,1.60
2022-10-16T05:43:29.348Z,1.60
2022-10-16T05:45:56.406Z,1.57
2022-10-16T05:48:23.413Z,1.87
2022-10-16T05:50:56.621Z,1.60
2022-10-16T05:53:26.343Z,1.10
2022-10-16T05:55:54.020Z,1.97
2022-10-16T05:58:20.924Z,2.20
2022-10-16T06:00:53.688Z,2.03
2022-10-16T06:03:19.958Z,2.00
2022-10-16T06:05:46.215Z,1.90
2022-10-16T06:08:12.522Z,2.20
2022-10-16T06:10:38.772Z,1.87
2022-10-16T06:13:05.064Z,1.80
2022-10-16T06:15:31.387Z,1.63
2022-10-16T06:17:57.693Z,1.60
2022-10-16T06:20:23.976Z,1.60
2022-10-16T06:22:50.277Z,1.80
2022-10-16T06:25:16.598Z,2.00
2022-10-16T06:27:42.919Z,2.20
2022-10-16T06:30:09.757Z,1.83
2022-10-16T06:32:36.069Z,1.63
2022-10-16T06:35:02.375Z,2.23
2022-10-16T06:37:28.883Z,1.90
2022-10-16T06:39:55.386Z,1.90
2022-10-16T06:42:21.705Z,2.10
2022-10-16T06:44:48.175Z,1.90
2022-10-16T06:47:14.488Z,2.00
2022-10-16T06:49:40.801Z,1.83
2022-10-16T06:52:07.141Z,2.30
2022-10-16T06:54:41.835Z,2.10
2022-10-16T06:57:08.707Z,1.63
2022-10-16T06:59:35.006Z,2.00
2022-10-16T07:02:01.310Z,1.80
2022-10-16T07:04:27.685Z,1.87
2022-10-16T07:06:53.939Z,2.33
2022-10-16T07:09:20.284Z,2.30
2022-10-16T07:11:46.622Z,2.10
2022-10-16T07:14:22.040Z,2.27
2022-10-16T07:16:49.065Z,2.07
2022-10-16T07:19:16.396Z,1.70
2022-10-16T07:21:43.166Z,2.20
2022-10-16T07:24:14.307Z,2.43
2022-10-16T07:26:41.904Z,1.77
2022-10-16T07:29:14.367Z,1.77
2022-10-16T07:31:40.836Z,1.93
2022-10-16T07:34:07.194Z,2.27
2022-10-16T07:36:33.455Z,2.13
2022-10-16T07:39:00.458Z,1.97
2022-10-16T07:41:27.003Z,2.53
2022-10-16T07:43:53.994Z,1.90
2022-10-16T07:46:22.154Z,2.00
2022-10-16T07:48:49.322Z,2.17
2022-10-16T07:51:18.043Z,2.00
2022-10-16T07:53:44.593Z,1.80
2022-10-16T07:56:12.612Z,2.10
2022-10-16T07:58:39.140Z,1.43
2022-10-16T08:01:07.936Z,1.87
2022-10-16T08:03:34.668Z,1.97
2022-10-16T08:06:02.477Z,1.73
2022-10-16T08:08:29.074Z,1.90
2022-10-16T08:10:55.407Z,2.00
2022-10-16T08:13:21.945Z,2.00
2022-10-16T08:15:48.433Z,2.07
2022-10-16T08:18:16.207Z,1.90
2022-10-16T08:20:43.410Z,2.10
2022-10-16T08:23:13.964Z,2.17
2022-10-16T08:25:41.477Z,2.30
2022-10-16T08:28:10.171Z,1.80
2022-10-16T08:30:36.893Z,1.53
2022-10-16T08:33:03.600Z,1.70
2022-10-16T08:35:30.017Z,1.80
2022-10-16T08:37:56.334Z,2.10
2022-10-16T08:43:08.001Z,2.10
2022-10-16T08:45:59.217Z,2.40
2022-10-16T08:48:31.136Z,2.10
2022-10-16T08:50:57.678Z,2.30
2022-10-16T08:53:26.671Z,2.20
2022-10-16T08:55:54.406Z,2.20
2022-10-16T08:58:23.549Z,2.30
2022-10-16T09:00:58.354Z,1.90
2022-10-16T09:03:58.447Z,2.43
2022-10-16T09:06:41.378Z,2.63
2022-10-16T09:09:10.407Z,2.13
2022-10-16T09:11:36.640Z,2.20
2022-10-16T09:14:16.867Z,2.37
2022-10-16T09:16:53.214Z,2.03
2022-10-16T09:19:37.787Z,2.13
2022-10-16T09:22:11.566Z,2.30
2022-10-16T09:24:38.009Z,2.60
2022-10-16T09:27:04.309Z,2.70
2022-10-16T09:29:30.620Z,2.40
2022-10-16T09:31:58.580Z,2.47
2022-10-16T09:34:34.285Z,2.60
2022-10-16T09:37:04.949Z,2.40
2022-10-16T09:39:31.344Z,2.73
2022-10-16T09:41:57.861Z,2.53
2022-10-16T09:44:28.613Z,2.33
2022-10-16T09:47:04.825Z,2.20
2022-10-16T09:49:31.491Z,2.07
2022-10-16T09:52:12.793Z,1.80
2022-10-16T09:54:49.686Z,2.17
2022-10-16T09:57:16.341Z,2.13
2022-10-16T09:59:51.250Z,2.10
2022-10-16T10:02:24.171Z,2.43
2022-10-16T10:04:55.284Z,1.90
2022-10-16T10:07:34.008Z,1.97
2022-10-16T10:10:02.273Z,2.33
2022-10-16T10:12:31.654Z,2.17
2022-10-16T10:15:04.295Z,2.33
2022-10-16T10:17:31.225Z,2.00
2022-10-16T10:19:59.499Z,2.23
2022-10-16T10:22:46.577Z,1.43
2022-10-16T10:25:12.843Z,2.30
2022-10-16T10:27:43.375Z,2.17
2022-10-16T10:30:24.533Z,2.33
2022-10-16T10:32:58.474Z,1.67
2022-10-16T10:35:50.673Z,1.80
2022-10-16T10:38:23.632Z,1.83
2022-10-16T10:41:02.014Z,2.33
2022-10-16T10:44:05.137Z,2.33
2022-10-16T10:47:17.495Z,1.87
2022-10-16T10:49:49.644Z,2.00
2022-10-16T10:52:32.685Z,2.43
2022-10-16T10:55:11.603Z,2.33
2022-10-16T10:57:56.722Z,2.40
2022-10-16T11:00:57.672Z,1.90
2022-10-16T11:03:33.687Z,2.00
2022-10-16T11:06:27.525Z,1.67
2022-10-16T11:09:01.393Z,1.70
2022-10-16T11:11:39.259Z,1.63
2022-10-16T11:14:11.443Z,2.03
2022-10-16T11:16:44.300Z,1.97
2022-10-16T11:19:34.607Z,1.50
2022-10-16T11:22:18.058Z,2.50
2022-10-16T11:25:06.383Z,1.90
2022-10-16T11:27:45.982Z,2.07
2022-10-16T11:30:34.870Z,2.10
2022-10-16T11:33:10.379Z,1.70
2022-10-16T11:35:54.482Z,1.60
2022-10-16T11:38:38.864Z,1.97
2022-10-16T11:41:23.633Z,1.90
2022-10-16T11:44:11.570Z,1.70
2022-10-16T11:46:58.291Z,1.83
2022-10-16T11:49:27.756Z,1.60
2022-10-16T11:52:07.367Z,1.80
2022-10-16T11:54:44.868Z,1.80
2022-10-16T11:57:21.543Z,1.40
2022-10-16T11:59:47.936Z,1.67
2022-10-16T12:02:32.875Z,1.93
2022-10-16T12:05:36.762Z,1.60
2022-10-16T12:08:11.825Z,2.77
2022-10-16T12:10:40.582Z,1.70
2022-10-16T12:13:31.688Z,1.43
2022-10-16T12:16:13.265Z,1.70
2022-10-16T12:18:41.823Z,1.37
2022-10-16T12:21:09.388Z,1.83
2022-10-16T12:23:48.204Z,1.03
2022-10-16T12:26:14.735Z,1.67
2022-10-16T12:28:41.613Z,2.67
2022-10-16T12:31:10.952Z,1.70
2022-10-16T12:33:40.868Z,1.77
2022-10-16T12:36:36.301Z,2.20
2022-10-16T12:39:03.475Z,2.00
2022-10-16T12:41:35.602Z,2.10
2022-10-16T12:44:03.133Z,1.67
2022-10-16T12:46:29.449Z,2.80
2022-10-16T12:49:08.114Z,1.67
2022-10-16T12:51:37.653Z,2.00
2022-10-16T12:54:12.616Z,1.60
2022-10-16T12:56:53.901Z,1.50
2022-10-16T12:59:38.803Z,1.43
2022-10-16T13:02:08.192Z,1.20
2022-10-16T13:04:52.772Z,1.53
2022-10-16T13:07:39.398Z,1.40
2022-10-16T13:10:11.793Z,1.40
2022-10-16T13:13:02.219Z,1.83
2022-10-16T13:15:41.542Z,2.87
2022-10-16T13:18:25.433Z,2.27
2022-10-16T13:20:54.843Z,2.70
2022-10-16T13:23:37.545Z,2.67
2022-10-16T13:26:23.030Z,2.27
2022-10-16T13:28:49.799Z,2.23
2022-10-16T13:31:20.451Z,2.37
2022-10-16T13:33:51.565Z,2.00
2022-10-16T13:36:26.162Z,2.47
2022-10-16T13:39:21.506Z,2.20
2022-10-16T13:42:02.508Z,2.13
2022-10-16T13:44:38.140Z,2.23
2022-10-16T13:47:04.499Z,2.30
2022-10-16T13:49:30.867Z,2.20
2022-10-16T13:51:58.751Z,2.10
2022-10-16T13:54:27.594Z,1.53
2022-10-16T13:57:03.180Z,1.80
2022-10-16T13:59:39.620Z,2.00
2022-10-16T14:02:18.034Z,1.70
2022-10-16T14:04:44.492Z,1.17
2022-10-16T14:07:26.384Z,1.27
2022-10-16T14:09:54.207Z,1.30
2022-10-16T14:12:25.525Z,1.60
2022-10-16T14:14:56.636Z,1.63
2022-10-16T14:17:24.931Z,1.27
2022-10-16T14:19:58.514Z,1.73
2022-10-16T14:22:33.466Z,1.07
2022-10-16T14:25:00.003Z,1.40
2022-10-16T14:27:34.913Z,1.20
2022-10-16T14:30:20.611Z,1.33
2022-10-16T14:33:05.109Z,1.50
2022-10-16T14:35:32.947Z,1.20
2022-10-16T14:38:01.058Z,1.60
2022-10-16T14:40:31.413Z,1.50
2022-10-16T14:42:58.667Z,1.40
2022-10-16T14:45:27.042Z,1.50
2022-10-16T14:47:54.670Z,1.57
2022-10-16T14:50:21.167Z,1.60
2022-10-16T14:52:47.578Z,1.80
2022-10-16T14:55:14.040Z,1.43
2022-10-16T14:57:40.870Z,1.50
2022-10-16T15:00:17.855Z,1.13
2022-10-16T15:02:44.983Z,1.30
2022-10-16T15:05:13.424Z,1.53
2022-10-16T15:07:39.757Z,1.90
2022-10-16T15:10:06.350Z,1.90
2022-10-16T15:12:33.210Z,2.00
2022-10-16T15:14:59.476Z,1.40
2022-10-16T15:17:26.089Z,1.40
2022-10-16T15:19:52.850Z,1.57
2022-10-16T15:22:19.377Z,1.30
2022-10-16T15:24:45.707Z,1.27
2022-10-16T15:27:12.289Z,1.30
2022-10-16T15:29:38.600Z,1.57
2022-10-16T15:32:04.917Z,1.67
2022-10-16T15:34:31.247Z,1.67
2022-10-16T15:36:58.775Z,1.40
2022-10-16T15:39:25.129Z,1.57
2022-10-16T15:41:52.208Z,2.03
2022-10-16T15:44:18.730Z,2.00
2022-10-16T15:46:45.214Z,1.50
2022-10-16T15:49:12.437Z,1.97
2022-10-16T15:51:39.484Z,1.50
2022-10-16T15:54:06.025Z,1.57
2022-10-16T15:56:34.148Z,1.57
2022-10-16T15:59:02.740Z,1.40
2022-10-16T16:01:30.302Z,1.20
2022-10-16T16:03:56.923Z,1.57
2022-10-16T16:06:26.455Z,1.70
2022-10-16T16:08:52.910Z,1.50
2022-10-16T16:11:20.486Z,2.03
2022-10-16T16:13:47.010Z,1.60
2022-10-16T16:16:15.567Z,1.73
2022-10-16T16:18:43.073Z,1.60
2022-10-16T16:21:12.863Z,1.90
2022-10-16T16:23:39.131Z,2.07
2022-10-16T16:26:11.558Z,1.60
2022-10-16T16:28:39.089Z,1.87
2022-10-16T16:31:05.760Z,2.00
2022-10-16T16:33:32.515Z,1.90
2022-10-16T16:35:59.773Z,1.53
2022-10-16T16:38:27.033Z,2.23
2022-10-16T16:40:56.189Z,1.90
2022-10-16T16:43:26.446Z,1.50
2022-10-16T16:45:53.711Z,1.90
2022-10-16T16:48:20.630Z,2.37
2022-10-16T16:50:46.966Z,2.07
2022-10-16T16:53:13.359Z,2.03
2022-10-16T16:55:40.050Z,1.60
2022-10-16T16:58:06.379Z,2.70
2022-10-16T17:00:32.758Z,2.23
2022-10-16T17:02:59.213Z,2.33
2022-10-16T17:05:25.795Z,2.50
2022-10-16T17:07:52.075Z,2.70
2022-10-16T17:10:18.600Z,2.47
2022-10-16T17:12:44.961Z,4.83
2022-10-16T17:15:11.382Z,6.23
2022-10-16T17:17:37.853Z,6.50
2022-10-16T17:20:04.466Z,5.07
2022-10-16T17:22:31.018Z,4.50
2022-10-16T17:24:57.386Z,3.10
2022-10-16T17:27:23.802Z,3.20
2022-10-16T17:29:53.072Z,3.33
2022-10-16T17:32:21.103Z,3.00
2022-10-16T17:34:47.785Z,3.03
2022-10-16T17:37:17.238Z,3.10
2022-10-16T17:39:44.579Z,3.40
2022-10-16T17:42:10.863Z,2.80
2022-10-16T17:44:37.205Z,2.97
2022-10-16T17:47:03.566Z,3.33
2022-10-16T17:49:30.515Z,3.87
2022-10-16T17:51:57.025Z,4.07
2022-10-16T17:54:23.603Z,4.23
2022-10-16T17:56:50.055Z,2.70
2022-10-16T17:59:16.539Z,4.27
2022-10-16T18:01:45.824Z,3.40
2022-10-16T18:04:15.563Z,3.90
2022-10-16T18:06:43.772Z,3.50
2022-10-16T18:09:10.951Z,3.60
2022-10-16T18:11:37.425Z,3.50
2022-10-16T18:14:04.376Z,3.43
2022-10-16T18:16:31.466Z,3.47
2022-10-16T18:18:58.984Z,4.17
2022-10-16T18:21:27.404Z,4.03
2022-10-16T18:23:54.318Z,3.93
2022-10-16T18:26:21.757Z,3.90
2022-10-16T18:28:48.312Z,3.90
2022-10-16T18:31:17.509Z,5.87
2022-10-16T18:33:48.454Z,4.60
2022-10-16T18:36:15.478Z,4.37
2022-10-16T18:38:41.854Z,4.30
2022-10-16T18:41:08.383Z,4.90
2022-10-16T18:43:37.287Z,4.77
2022-10-16T18:46:08.611Z,5.37
2022-10-16T18:48:35.224Z,5.20
2022-10-16T18:51:08.271Z,4.90
2022-10-16T18:53:34.698Z,4.80
2022-10-16T18:56:01.051Z,5.30
2022-10-16T18:58:27.406Z,4.47
2022-10-16T19:00:53.830Z,5.00
2022-10-16T19:03:20.281Z,4.60
2022-10-16T19:05:46.639Z,5.10
2022-10-16T19:08:14.697Z,4.13
2022-10-16T19:10:44.553Z,4.77
2022-10-16T19:13:11.197Z,5.20
2022-10-16T19:15:40.896Z,5.03
2022-10-16T19:18:07.150Z,4.30
2022-10-16T19:20:33.733Z,4.40
2022-10-16T19:23:00.080Z,5.27
2022-10-16T19:25:27.973Z,5.20
2022-10-16T19:27:54.867Z,4.47
2022-10-16T19:30:23.009Z,4.80
2022-10-16T19:32:50.294Z,4.90
2022-10-16T19:35:16.742Z,4.97
2022-10-16T19:37:43.009Z,4.80
2022-10-16T19:40:10.005Z,5.27
2022-10-16T19:42:36.339Z,5.10
2022-10-16T19:45:02.580Z,5.07
2022-10-16T19:47:28.941Z,5.47
2022-10-16T19:49:55.259Z,4.83
2022-10-16T19:52:24.563Z,5.80
2022-10-16T19:54:51.090Z,5.37
2022-10-16T19:57:17.348Z,5.87
2022-10-16T19:59:45.689Z,5.67
2022-10-16T20:02:12.322Z,5.63
2022-10-16T20:04:38.722Z,5.30
2022-10-16T20:07:05.749Z,5.93
2022-10-16T20:09:33.148Z,5.10
2022-10-16T20:11:59.475Z,5.40
2022-10-16T20:14:25.830Z,4.83
2022-10-16T20:16:53.236Z,5.83
2022-10-16T20:19:19.805Z,5.43
2022-10-16T20:21:46.141Z,5.43
2022-10-16T20:24:12.460Z,5.80
2022-10-16T20:26:38.880Z,6.23
2022-10-16T20:29:05.679Z,4.83
2022-10-16T20:31:33.634Z,6.20
2022-10-16T20:34:06.783Z,4.77
2022-10-16T20:36:34.781Z,5.03
2022-10-16T20:39:02.129Z,4.83
2022-10-16T20:41:28.567Z,4.57
2022-10-16T20:43:55.712Z,5.43
2022-10-16T20:46:24.164Z,4.70
2022-10-16T20:48:51.506Z,4.87
2022-10-16T20:51:22.097Z,5.00
2022-10-16T20:53:51.454Z,4.67
2022-10-16T20:56:17.867Z,4.73
2022-10-16T20:58:45.437Z,5.03
2022-10-16T21:01:19.848Z,5.30
2022-10-16T21:03:54.210Z,4.63
2022-10-16T21:06:21.623Z,4.77
2022-10-16T21:08:48.513Z,4.93
2022-10-16T21:11:24.101Z,5.60
2022-10-16T21:13:55.298Z,5.17
2022-10-16T21:16:22.061Z,5.63
2022-10-16T21:18:48.836Z,5.83
2022-10-16T21:21:29.110Z,5.60
2022-10-16T21:23:57.603Z,5.07
2022-10-16T21:26:28.244Z,4.90
2022-10-16T21:28:57.553Z,4.90
2022-10-16T21:31:24.088Z,4.87
2022-10-16T21:33:51.217Z,5.40
2022-10-16T21:36:20.339Z,4.63
2022-10-16T21:41:18.496Z,5.17
2022-10-16T21:43:45.249Z,5.27
2022-10-16T21:46:11.980Z,5.80
2022-10-16T21:48:39.326Z,4.60
2022-10-16T21:51:06.225Z,5.20
2022-10-16T21:53:32.524Z,6.83
2022-10-16T21:55:58.805Z,6.30
2022-10-16T21:58:25.159Z,6.20
2022-10-16T22:00:51.511Z,6.60
2022-10-16T22:03:17.830Z,6.53
2022-10-16T22:05:44.157Z,5.30
2022-10-16T22:08:10.487Z,6.43
2022-10-16T22:10:36.850Z,6.63
2022-10-16T22:13:03.220Z,6.77
2022-10-16T22:15:29.531Z,6.93
2022-10-16T22:17:55.785Z,8.10
2022-10-16T22:20:22.105Z,6.90
2022-10-16T22:22:48.363Z,5.87
2022-10-16T22:25:14.682Z,7.47
2022-10-16T22:27:41.612Z,6.57
2022-10-16T22:30:08.173Z,7.17
2022-10-16T22:32:34.481Z,6.37
2022-10-16T22:35:00.781Z,6.57
2022-10-16T22:37:27.287Z,5.13
2022-10-16T22:39:55.762Z,6.40
2022-10-16T22:42:24.315Z,5.17
2022-10-16T22:44:50.575Z,5.83
2022-10-16T22:47:17.144Z,5.67
2022-10-16T22:49:43.472Z,5.83
2022-10-16T22:52:10.139Z,5.40
2022-10-16T22:54:36.582Z,5.70
2022-10-16T22:57:02.989Z,5.83
2022-10-16T22:59:29.298Z,6.07
2022-10-16T23:01:55.649Z,5.00
2022-10-16T23:04:21.990Z,4.73
2022-10-16T23:06:48.370Z,5.97
2022-10-16T23:09:14.706Z,4.67
2022-10-16T23:11:41.026Z,5.60
2022-10-16T23:14:07.372Z,6.20
2022-10-16T23:16:33.649Z,5.90
2022-10-16T23:19:00.019Z,5.23
2022-10-16T23:21:26.891Z,5.27
2022-10-16T23:23:54.312Z,5.67
2022-10-16T23:26:24.175Z,5.37
2022-10-16T23:28:50.567Z,6.27
2022-10-16T23:31:22.066Z,5.03
2022-10-16T23:33:48.347Z,5.30
2022-10-16T23:36:17.886Z,5.80
2022-10-16T23:38:44.850Z,5.37
2022-10-16T23:41:12.133Z,5.77
2022-10-16T23:43:39.015Z,5.37
2022-10-16T23:46:06.925Z,6.10
2022-10-16T23:48:33.320Z,5.97
2022-10-16T23:50:59.950Z,5.80
2022-10-16T23:53:26.688Z,5.30
2022-10-16T23:55:53.053Z,5.70
2022-10-16T23:58:19.381Z,5.90
